createdAt,value
2022-10-23T00:02:34.371Z,14.30
2022-10-23T00:05:20.470Z,14.40
2022-10-23T00:08:05.671Z,14.40
2022-10-23T00:10:50.919Z,14.30
2022-10-23T00:13:36.498Z,14.30
2022-10-23T00:16:22.286Z,14.30
2022-10-23T00:19:07.632Z,14.30
2022-10-23T00:21:53.559Z,14.20
2022-10-23T00:24:39.123Z,14.20
2022-10-23T00:27:24.758Z,14.20
2022-10-23T00:30:10.863Z,14.20
2022-10-23T00:32:55.954Z,14.20
2022-10-23T00:35:42.213Z,14.20
2022-10-23T00:38:27.339Z,14.20
2022-10-23T00:41:20.461Z,14.20
2022-10-23T00:44:30.899Z,14.20
2022-10-23T00:47:16.991Z,14.20
2022-10-23T00:50:02.596Z,14.20
2022-10-23T00:52:50.402Z,14.10
2022-10-23T00:55:36.526Z,14.10
2022-10-23T00:58:22.015Z,14.10
2022-10-23T01:01:19.240Z,14.10
2022-10-23T01:04:07.083Z,14.10
2022-10-23T01:07:10.667Z,14.10
2022-10-23T01:10:13.193Z,14.00
2022-10-23T01:13:12.681Z,14.00
2022-10-23T01:16:08.802Z,14.00
2022-10-23T01:19:37.204Z,14.00
2022-10-23T01:22:53.490Z,14.00
2022-10-23T01:25:58.273Z,14.00
2022-10-23T01:28:55.763Z,13.90
2022-10-23T01:31:50.098Z,13.90
2022-10-23T01:34:57.095Z,13.90
2022-10-23T01:37:49.964Z,13.80
2022-10-23T01:40:54.670Z,13.80
2022-10-23T01:43:52.168Z,13.80
2022-10-23T01:46:37.580Z,13.80
2022-10-23T01:49:24.330Z,13.80
2022-10-23T01:52:12.879Z,13.80
2022-10-23T01:55:00.778Z,13.80
2022-10-23T01:57:48.779Z,13.80
2022-10-23T02:00:39.496Z,13.80
2022-10-23T02:03:28.931Z,13.80
2022-10-23T02:06:14.441Z,13.70
2022-10-23T02:08:59.963Z,13.70
2022-10-23T02:11:55.080Z,13.70
2022-10-23T02:14:53.202Z,13.70
2022-10-23T02:17:51.555Z,13.70
2022-10-23T02:20:48.035Z,13.70
2022-10-23T02:23:57.145Z,13.70
2022-10-23T02:26:55.384Z,13.70
2022-10-23T02:29:45.504Z,13.70
2022-10-23T02:32:31.295Z,13.70
2022-10-23T02:35:18.129Z,13.70
2022-10-23T02:38:03.634Z,13.70
2022-10-23T02:40:49.029Z,13.70
2022-10-23T02:43:41.343Z,13.70
2022-10-23T02:46:43.930Z,13.70
2022-10-23T02:49:29.142Z,13.60
2022-10-23T02:52:25.212Z,13.70
2022-10-23T02:55:25.731Z,13.60
2022-10-23T02:58:23.981Z,13.60
2022-10-23T03:01:17.746Z,13.60
2022-10-23T03:04:05.865Z,13.60
2022-10-23T03:06:51.756Z,13.60
2022-10-23T03:09:37.297Z,13.60
2022-10-23T03:12:22.700Z,13.60
2022-10-23T03:15:08.871Z,13.60
2022-10-23T03:17:54.143Z,13.60
2022-10-23T03:20:39.467Z,13.60
2022-10-23T03:23:24.974Z,13.70
2022-10-23T03:26:10.314Z,13.70
2022-10-23T03:28:55.678Z,13.70
2022-10-23T03:31:41.273Z,13.70
2022-10-23T03:34:26.632Z,13.70
2022-10-23T03:37:12.174Z,13.70
2022-10-23T03:39:57.590Z,13.60
2022-10-23T03:42:43.109Z,13.60
2022-10-23T03:45:28.701Z,13.60
2022-10-23T03:48:14.744Z,13.60
2022-10-23T03:50:59.927Z,13.60
2022-10-23T03:53:45.219Z,13.60
2022-10-23T03:56:30.782Z,13.60
2022-10-23T03:59:17.058Z,13.60
2022-10-23T04:02:02.245Z,13.60
2022-10-23T04:04:47.599Z,13.60
2022-10-23T04:07:32.939Z,13.60
2022-10-23T04:10:18.479Z,13.60
2022-10-23T04:13:03.778Z,13.60
2022-10-23T04:15:50.309Z,13.60
2022-10-23T04:18:35.315Z,13.60
2022-10-23T04:21:20.834Z,13.60
2022-10-23T04:24:06.509Z,13.60
2022-10-23T04:26:52.142Z,13.60
2022-10-23T04:29:37.303Z,13.60
2022-10-23T04:32:22.782Z,13.60
2022-10-23T04:35:08.451Z,13.70
2022-10-23T04:37:53.866Z,13.60
2022-10-23T04:40:39.199Z,13.60
2022-10-23T04:43:24.553Z,13.70
2022-10-23T04:46:10.079Z,13.70
2022-10-23T04:48:55.283Z,13.60
2022-10-23T04:51:40.621Z,13.60
2022-10-23T04:54:25.863Z,13.60
2022-10-23T04:57:11.209Z,13.50
2022-10-23T04:59:56.593Z,13.50
2022-10-23T05:02:42.252Z,13.50
2022-10-23T05:05:28.028Z,13.50
2022-10-23T05:08:17.128Z,13.50
2022-10-23T05:11:04.188Z,13.50
2022-10-23T05:13:49.412Z,13.50
2022-10-23T05:16:48.208Z,13.60
2022-10-23T05:19:45.811Z,13.60
2022-10-23T05:22:34.804Z,13.70
2022-10-23T05:25:20.024Z,13.70
2022-10-23T05:28:05.478Z,13.70
2022-10-23T05:30:51.291Z,13.70
2022-10-23T05:33:37.127Z,13.60
2022-10-23T05:36:23.978Z,13.60
2022-10-23T05:39:09.203Z,13.60
2022-10-23T05:41:55.031Z,13.60
2022-10-23T05:44:40.416Z,13.60
2022-10-23T05:47:25.804Z,13.50
2022-10-23T05:50:11.297Z,13.50
2022-10-23T05:52:56.539Z,13.70
2022-10-23T05:55:41.985Z,13.50
2022-10-23T05:58:27.249Z,13.40
2022-10-23T06:01:14.330Z,13.30
2022-10-23T06:04:00.753Z,13.30
2022-10-23T06:06:46.957Z,13.40
2022-10-23T06:09:32.097Z,13.40
2022-10-23T06:12:17.343Z,13.50
2022-10-23T06:15:03.290Z,13.60
2022-10-23T06:17:48.737Z,13.50
2022-10-23T06:20:38.761Z,13.50
2022-10-23T06:23:23.814Z,13.50
2022-10-23T06:26:12.381Z,13.60
2022-10-23T06:28:57.763Z,13.40
2022-10-23T06:31:43.372Z,13.40
2022-10-23T06:34:28.790Z,13.50
2022-10-23T06:37:14.283Z,13.50
2022-10-23T06:39:59.643Z,13.60
2022-10-23T06:42:45.189Z,13.60
2022-10-23T06:45:33.939Z,13.50
2022-10-23T06:48:19.354Z,13.60
2022-10-23T06:51:07.226Z,13.70
2022-10-23T06:53:52.591Z,13.80
2022-10-23T06:56:38.416Z,13.80
2022-10-23T06:59:23.611Z,13.80
2022-10-23T07:02:09.853Z,13.90
2022-10-23T07:04:55.102Z,14.00
2022-10-23T07:07:40.465Z,14.00
2022-10-23T07:10:26.107Z,14.00
2022-10-23T07:13:12.094Z,13.90
2022-10-23T07:15:57.529Z,13.90
2022-10-23T07:18:43.309Z,13.90
2022-10-23T07:21:31.109Z,13.80
2022-10-23T07:24:17.071Z,13.70
2022-10-23T07:27:03.001Z,13.70
2022-10-23T07:29:52.354Z,13.70
2022-10-23T07:32:37.550Z,13.60
2022-10-23T07:35:23.037Z,13.60
2022-10-23T07:38:08.485Z,13.70
2022-10-23T07:40:54.105Z,13.70
2022-10-23T07:43:39.560Z,13.80
2022-10-23T07:46:24.613Z,13.90
2022-10-23T07:49:11.105Z,14.00
2022-10-23T07:51:58.722Z,14.20
2022-10-23T07:54:44.176Z,14.20
2022-10-23T07:57:29.414Z,14.30
2022-10-23T08:00:15.710Z,14.20
2022-10-23T08:03:01.023Z,14.30
2022-10-23T08:05:46.603Z,14.30
2022-10-23T08:08:31.910Z,14.30
2022-10-23T08:11:24.795Z,14.30
2022-10-23T08:14:10.445Z,14.20
2022-10-23T08:16:55.709Z,14.30
2022-10-23T08:19:46.240Z,14.30
2022-10-23T08:22:31.858Z,14.40
2022-10-23T08:25:18.308Z,14.50
2022-10-23T08:28:06.580Z,14.50
2022-10-23T08:30:51.829Z,14.50
2022-10-23T08:33:37.927Z,14.50
2022-10-23T08:36:26.374Z,14.40
2022-10-23T08:39:11.672Z,14.50
2022-10-23T08:41:57.195Z,14.50
2022-10-23T08:45:12.257Z,14.60
2022-10-23T08:48:04.163Z,14.60
2022-10-23T08:51:15.950Z,14.70
2022-10-23T08:54:25.494Z,14.80
2022-10-23T08:57:14.979Z,14.90
2022-10-23T09:00:04.666Z,14.90
2022-10-23T09:02:54.124Z,14.90
2022-10-23T09:06:26.051Z,15.00
2022-10-23T09:09:28.102Z,15.00
2022-10-23T09:12:21.114Z,15.10
2022-10-23T09:15:42.010Z,15.20
2022-10-23T09:18:27.341Z,15.30
2022-10-23T09:21:12.778Z,15.30
2022-10-23T09:23:58.246Z,15.40
2022-10-23T09:26:49.972Z,15.40
2022-10-23T09:29:36.089Z,15.40
2022-10-23T09:32:33.503Z,15.40
2022-10-23T09:35:23.903Z,15.40
2022-10-23T09:38:25.697Z,15.50
2022-10-23T09:41:38.447Z,15.50
2022-10-23T09:44:29.835Z,15.60
2022-10-23T09:47:20.549Z,15.80
2022-10-23T09:50:20.373Z,15.80
2022-10-23T09:53:05.951Z,15.90
2022-10-23T09:55:56.032Z,16.00
2022-10-23T09:58:55.260Z,15.90
2022-10-23T10:01:53.678Z,16.10
2022-10-23T10:04:41.048Z,16.10
2022-10-23T10:07:32.157Z,16.20
2022-10-23T10:10:20.015Z,16.20
2022-10-23T10:13:31.212Z,16.40
2022-10-23T10:16:21.479Z,16.50
2022-10-23T10:19:35.943Z,16.50
2022-10-23T10:22:35.830Z,16.50
2022-10-23T10:25:37.917Z,16.70
2022-10-23T10:28:35.336Z,16.60
2022-10-23T10:31:50.719Z,16.60
2022-10-23T10:34:45.729Z,16.70
2022-10-23T10:37:41.062Z,16.60
2022-10-23T10:40:35.281Z,16.70
2022-10-23T10:43:44.324Z,16.80
2022-10-23T10:46:44.782Z,17.00
2022-10-23T10:49:55.797Z,17.00
2022-10-23T10:52:49.969Z,17.00
2022-10-23T10:55:40.956Z,17.00
2022-10-23T10:58:45.436Z,16.90
2022-10-23T11:01:33.983Z,17.00
2022-10-23T11:04:32.716Z,17.00
2022-10-23T11:07:22.283Z,17.20
2022-10-23T11:10:17.501Z,17.20
2022-10-23T11:13:02.737Z,17.60
2022-10-23T11:15:48.247Z,17.80
2022-10-23T11:18:34.852Z,17.80
2022-10-23T11:21:43.247Z,17.80
2022-10-23T11:25:00.129Z,17.60
2022-10-23T11:28:13.346Z,17.60
2022-10-23T11:31:11.897Z,17.60
2022-10-23T11:34:33.030Z,17.50
2022-10-23T11:37:20.401Z,17.60
2022-10-23T11:40:08.839Z,17.50
2022-10-23T11:42:54.579Z,17.50
2022-10-23T11:45:41.013Z,17.60
2022-10-23T11:48:36.786Z,17.60
2022-10-23T11:51:41.513Z,17.50
2022-10-23T11:54:27.364Z,17.60
2022-10-23T11:57:15.225Z,17.60
2022-10-23T12:00:00.413Z,17.80
2022-10-23T12:02:57.033Z,17.80
2022-10-23T12:05:45.686Z,17.70
2022-10-23T12:08:34.770Z,17.80
2022-10-23T12:11:42.909Z,17.80
2022-10-23T12:14:46.168Z,17.90
2022-10-23T12:17:36.197Z,18.10
2022-10-23T12:20:27.058Z,18.30
2022-10-23T12:23:26.205Z,18.40
2022-10-23T12:26:17.228Z,18.50
2022-10-23T12:29:33.160Z,18.70
2022-10-23T12:32:36.736Z,18.80
2022-10-23T12:35:36.830Z,18.90
2022-10-23T12:38:31.301Z,18.90
2022-10-23T12:41:26.246Z,18.80
2022-10-23T12:44:12.777Z,18.70
2022-10-23T12:47:01.485Z,18.80
2022-10-23T12:49:51.151Z,18.70
2022-10-23T12:52:39.564Z,18.80
2022-10-23T12:55:27.495Z,18.70
2022-10-23T12:58:26.777Z,18.80
2022-10-23T13:01:24.615Z,18.80
2022-10-23T13:04:26.595Z,18.80
2022-10-23T13:07:11.984Z,18.80
2022-10-23T13:09:58.507Z,18.80
2022-10-23T13:12:50.644Z,18.80
2022-10-23T13:15:41.840Z,18.70
2022-10-23T13:18:26.901Z,18.60
2022-10-23T13:21:30.664Z,18.60
2022-10-23T13:24:24.811Z,18.70
2022-10-23T13:27:34.947Z,18.70
2022-10-23T13:30:32.322Z,18.70
2022-10-23T13:33:27.133Z,18.50
2022-10-23T13:36:13.439Z,18.60
2022-10-23T13:38:58.683Z,18.60
2022-10-23T13:41:46.451Z,19.00
2022-10-23T13:44:32.498Z,19.20
2022-10-23T13:47:18.875Z,19.30
2022-10-23T13:50:06.408Z,19.30
2022-10-23T13:52:52.709Z,19.30
2022-10-23T13:55:40.616Z,19.20
2022-10-23T13:58:25.935Z,19.20
2022-10-23T14:01:35.934Z,19.10
2022-10-23T14:04:23.622Z,19.10
2022-10-23T14:07:08.826Z,19.10
2022-10-23T14:09:54.372Z,19.10
2022-10-23T14:12:44.738Z,19.30
2022-10-23T14:15:30.084Z,19.40
2022-10-23T14:18:15.514Z,19.30
2022-10-23T14:21:01.689Z,19.40
2022-10-23T14:23:48.607Z,19.10
2022-10-23T14:26:34.265Z,19.20
2022-10-23T14:29:23.823Z,19.10
2022-10-23T14:32:09.807Z,19.00
2022-10-23T14:34:55.487Z,18.90
2022-10-23T14:37:40.933Z,18.90
2022-10-23T14:40:26.348Z,18.90
2022-10-23T14:43:11.676Z,19.10
2022-10-23T14:45:57.033Z,19.30
2022-10-23T14:48:46.126Z,19.30
2022-10-23T14:51:33.475Z,19.40
2022-10-23T14:54:19.080Z,19.20
2022-10-23T14:57:04.379Z,19.10
2022-10-23T14:59:50.002Z,19.10
2022-10-23T15:02:35.369Z,19.00
2022-10-23T15:05:20.947Z,18.80
2022-10-23T15:08:06.194Z,19.00
2022-10-23T15:10:51.951Z,18.90
2022-10-23T15:13:37.271Z,18.80
2022-10-23T15:16:23.745Z,18.60
2022-10-23T15:19:17.358Z,18.50
2022-10-23T15:22:04.025Z,18.50
2022-10-23T15:24:49.579Z,18.50
2022-10-23T15:27:35.289Z,18.50
2022-10-23T15:30:20.493Z,18.50
2022-10-23T15:33:06.033Z,18.50
2022-10-23T15:35:52.650Z,18.50
2022-10-23T15:38:37.983Z,18.50
2022-10-23T15:41:34.532Z,18.30
2022-10-23T15:44:21.736Z,18.20
2022-10-23T15:47:07.436Z,18.20
2022-10-23T15:49:52.483Z,18.20
2022-10-23T15:52:38.073Z,18.10
2022-10-23T15:55:24.117Z,18.20
2022-10-23T15:58:09.386Z,18.20
2022-10-23T16:00:54.703Z,18.20
2022-10-23T16:03:40.046Z,18.20
2022-10-23T16:06:25.710Z,18.10
2022-10-23T16:09:11.707Z,18.10
2022-10-23T16:11:56.793Z,18.10
2022-10-23T16:14:42.359Z,18.10
2022-10-23T16:17:27.665Z,18.00
2022-10-23T16:20:13.333Z,17.90
2022-10-23T16:22:58.930Z,17.80
2022-10-23T16:25:44.074Z,17.80
2022-10-23T16:28:29.657Z,17.70
2022-10-23T16:31:20.234Z,17.70
2022-10-23T16:34:06.844Z,17.60
2022-10-23T16:36:52.313Z,17.60
2022-10-23T16:39:38.155Z,17.60
2022-10-23T16:42:23.627Z,17.60
2022-10-23T16:45:09.976Z,17.70
2022-10-23T16:47:55.605Z,17.70
2022-10-23T16:50:41.748Z,17.60
2022-10-23T16:53:30.745Z,17.60
2022-10-23T16:56:18.633Z,17.50
2022-10-23T16:59:03.973Z,17.40
2022-10-23T17:01:49.581Z,17.30
2022-10-23T17:04:36.428Z,17.30
2022-10-23T17:07:23.659Z,17.30
2022-10-23T17:10:09.738Z,17.30
2022-10-23T17:12:54.931Z,17.40
2022-10-23T17:18:30.550Z,17.40
2022-10-23T17:21:18.007Z,17.40
2022-10-23T17:24:04.730Z,17.30
2022-10-23T17:26:50.607Z,17.20
2022-10-23T17:29:36.127Z,17.30
2022-10-23T17:35:11.363Z,17.40
2022-10-23T17:37:56.924Z,17.40
2022-10-23T17:40:42.371Z,17.40
2022-10-23T17:43:27.905Z,17.40
2022-10-23T17:46:14.306Z,17.40
2022-10-23T17:51:52.243Z,17.40
2022-10-23T17:54:37.929Z,17.40
2022-10-23T18:00:13.222Z,17.30
2022-10-23T18:02:58.912Z,17.20
2022-10-23T18:05:44.139Z,17.10
2022-10-23T18:08:29.681Z,17.10
2022-10-23T18:11:17.936Z,17.20
2022-10-23T18:14:05.027Z,17.20
2022-10-23T18:16:51.216Z,17.20
2022-10-23T18:19:36.634Z,17.20
2022-10-23T18:22:21.880Z,17.10
2022-10-23T18:25:07.985Z,17.10
2022-10-23T18:27:53.189Z,17.20
2022-10-23T18:33:28.574Z,17.20
2022-10-23T18:36:21.663Z,17.30
2022-10-23T18:39:11.129Z,17.30
2022-10-23T18:41:57.924Z,17.20
2022-10-23T18:44:46.906Z,17.20
2022-10-23T18:47:32.466Z,17.20
2022-10-23T18:50:18.088Z,17.20
2022-10-23T18:53:03.710Z,17.20
2022-10-23T18:55:49.610Z,17.20
2022-10-23T18:58:34.883Z,17.10
2022-10-23T19:01:22.255Z,17.10
2022-10-23T19:04:08.023Z,17.20
2022-10-23T19:06:53.313Z,17.10
2022-10-23T19:09:40.494Z,17.00
2022-10-23T19:12:25.831Z,16.90
2022-10-23T19:15:11.375Z,17.00
2022-10-23T19:17:58.101Z,17.10
2022-10-23T19:20:43.590Z,17.20
2022-10-23T19:23:30.139Z,17.30
2022-10-23T19:26:16.198Z,17.30
2022-10-23T19:29:02.415Z,17.20
2022-10-23T19:31:49.238Z,17.10
2022-10-23T19:34:34.524Z,17.00
2022-10-23T19:37:20.023Z,16.90
2022-10-23T19:40:07.867Z,16.80
2022-10-23T19:42:54.239Z,16.80
2022-10-23T19:45:39.586Z,16.90
2022-10-23T19:48:25.083Z,16.80
2022-10-23T19:51:10.424Z,16.80
2022-10-23T19:53:57.030Z,16.80
2022-10-23T19:56:42.383Z,16.80
2022-10-23T19:59:27.774Z,16.70
2022-10-23T20:02:14.714Z,16.70
2022-10-23T20:04:59.945Z,16.70
2022-10-23T20:07:48.529Z,16.70
2022-10-23T20:10:33.879Z,16.70
2022-10-23T20:13:20.497Z,16.80
2022-10-23T20:16:06.011Z,16.80
2022-10-23T20:18:51.568Z,16.80
2022-10-23T20:21:38.162Z,16.80
2022-10-23T20:24:23.723Z,16.80
2022-10-23T20:27:09.721Z,16.60
2022-10-23T20:29:55.008Z,16.50
2022-10-23T20:32:40.476Z,16.40
2022-10-23T20:35:25.808Z,16.40
2022-10-23T20:38:11.346Z,16.50
2022-10-23T20:41:05.519Z,16.60
2022-10-23T20:43:50.974Z,16.60
2022-10-23T20:46:36.186Z,16.60
2022-10-23T20:49:22.298Z,16.60
2022-10-23T20:52:07.618Z,16.70
2022-10-23T20:54:53.096Z,16.80
2022-10-23T20:57:38.515Z,16.80
2022-10-23T21:00:24.003Z,16.70
2022-10-23T21:03:09.397Z,16.80
2022-10-23T21:05:54.559Z,16.60
2022-10-23T21:08:40.198Z,16.60
2022-10-23T21:11:26.223Z,16.60
2022-10-23T21:14:12.030Z,16.60
2022-10-23T21:16:57.693Z,16.60
2022-10-23T21:19:43.110Z,16.60
2022-10-23T21:22:28.646Z,16.70
2022-10-23T21:25:13.867Z,16.80
2022-10-23T21:27:59.156Z,16.90
2022-10-23T21:30:44.467Z,16.80
2022-10-23T21:33:29.785Z,16.80
2022-10-23T21:36:19.040Z,16.80
2022-10-23T21:39:04.343Z,16.80
2022-10-23T21:41:49.541Z,16.80
2022-10-23T21:44:35.067Z,16.90
2022-10-23T21:47:20.523Z,16.90
2022-10-23T21:50:06.570Z,17.00
2022-10-23T21:52:52.210Z,17.10
2022-10-23T21:55:37.390Z,17.10
2022-10-23T21:58:22.745Z,17.10
2022-10-23T22:01:08.161Z,17.00
2022-10-23T22:03:54.394Z,17.00
2022-10-23T22:06:40.915Z,17.10
2022-10-23T22:09:26.311Z,17.10
2022-10-23T22:12:11.933Z,17.10
2022-10-23T22:14:57.309Z,17.20
2022-10-23T22:17:43.108Z,17.20
2022-10-23T22:20:28.663Z,17.20
2022-10-23T22:23:14.087Z,17.20
2022-10-23T22:26:03.637Z,17.30
2022-10-23T22:28:49.794Z,17.30
2022-10-23T22:31:36.387Z,17.30
2022-10-23T22:34:48.225Z,17.30
2022-10-23T22:37:32.634Z,17.30
2022-10-23T22:40:18.138Z,17.30
2022-10-23T22:43:03.879Z,17.20
2022-10-23T22:45:49.045Z,17.20
2022-10-23T22:48:35.503Z,17.20
2022-10-23T22:51:22.539Z,17.10
2022-10-23T22:54:07.966Z,17.20
2022-10-23T22:56:53.325Z,17.20
2022-10-23T22:59:38.803Z,17.20
2022-10-23T23:02:24.208Z,17.20
2022-10-23T23:05:12.375Z,17.10
2022-10-23T23:07:57.939Z,17.10
2022-10-23T23:10:43.214Z,17.00
2022-10-23T23:13:28.886Z,16.90
2022-10-23T23:16:27.977Z,16.90
2022-10-23T23:19:12.981Z,16.80
2022-10-23T23:21:59.287Z,16.90
2022-10-23T23:24:44.384Z,17.00
2022-10-23T23:27:29.882Z,17.00
2022-10-23T23:30:15.366Z,17.00
2022-10-23T23:33:00.735Z,17.00
2022-10-23T23:35:48.161Z,17.00
2022-10-23T23:38:33.256Z,16.90
2022-10-23T23:41:20.606Z,17.00
2022-10-23T23:44:06.558Z,17.00
2022-10-23T23:46:51.825Z,17.10
2022-10-23T23:49:37.162Z,17.10
2022-10-23T23:52:22.623Z,17.00
2022-10-23T23:55:08.486Z,17.00
2022-10-23T23:57:53.810Z,17.10
